sensor_id;sensor_type;location;lat;lon;timestamp;pressure;altitude;pressure_sealevel;temperature;humidity
71151;BME280;59071;42.138;24.768;2023-02-22T00:02:09;99445.97;;;15.40;29.44
71151;BME280;59071;42.138;24.768;2023-02-22T00:04:35;99445.41;;;15.38;29.11
71151;BME280;59071;42.138;24.768;2023-02-22T00:07:03;99452.22;;;15.46;29.65
71151;BME280;59071;42.138;24.768;2023-02-22T00:09:28;99445.47;;;15.43;29.78
71151;BME280;59071;42.138;24.768;2023-02-22T00:11:54;99447.91;;;15.45;29.15
71151;BME280;59071;42.138;24.768;2023-02-22T00:14:19;99449.84;;;15.33;29.45
71151;BME280;59071;42.138;24.768;2023-02-22T00:16:44;99451.41;;;15.45;29.65
71151;BME280;59071;42.138;24.768;2023-02-22T00:19:10;99456.84;;;15.51;29.93
71151;BME280;59071;42.138;24.768;2023-02-22T00:21:35;99455.22;;;15.50;29.88
71151;BME280;59071;42.138;24.768;2023-02-22T00:24:01;99454.41;;;15.66;29.88
71151;BME280;59071;42.138;24.768;2023-02-22T00:26:41;99454.03;;;15.57;29.73
71151;BME280;59071;42.138;24.768;2023-02-22T00:29:06;99454.75;;;15.70;29.37
71151;BME280;59071;42.138;24.768;2023-02-22T00:31:36;99449.28;;;15.48;29.14
71151;BME280;59071;42.138;24.768;2023-02-22T00:34:01;99450.91;;;15.49;29.43
71151;BME280;59071;42.138;24.768;2023-02-22T00:36:26;99447.16;;;15.67;29.71
71151;BME280;59071;42.138;24.768;2023-02-22T00:38:51;99451.25;;;15.69;29.08
71151;BME280;59071;42.138;24.768;2023-02-22T00:41:17;99446.34;;;15.49;29.59
71151;BME280;59071;42.138;24.768;2023-02-22T00:43:42;99445.88;;;15.52;29.95
71151;BME280;59071;42.138;24.768;2023-02-22T00:46:07;99447.34;;;15.43;30.22
71151;BME280;59071;42.138;24.768;2023-02-22T00:48:33;99449.28;;;15.48;29.78
71151;BME280;59071;42.138;24.768;2023-02-22T00:50:58;99451.91;;;15.42;30.44
71151;BME280;59071;42.138;24.768;2023-02-22T00:53:24;99449.84;;;15.50;29.82
71151;BME280;59071;42.138;24.768;2023-02-22T00:55:49;99453.44;;;15.38;29.88
71151;BME280;59071;42.138;24.768;2023-02-22T00:58:15;99453.84;;;15.64;29.60
71151;BME280;59071;42.138;24.768;2023-02-22T01:00:41;99462.63;;;15.59;29.78
71151;BME280;59071;42.138;24.768;2023-02-22T01:03:07;99463.25;;;15.50;29.35
71151;BME280;59071;42.138;24.768;2023-02-22T01:05:34;99465.56;;;15.58;29.67
71151;BME280;59071;42.138;24.768;2023-02-22T01:08:00;99465.19;;;15.37;30.20
71151;BME280;59071;42.138;24.768;2023-02-22T01:10:26;99472.19;;;15.10;31.20
71151;BME280;59071;42.138;24.768;2023-02-22T01:12:52;99465.94;;;15.04;30.44
71151;BME280;59071;42.138;24.768;2023-02-22T01:15:19;99452.44;;;15.28;30.43
71151;BME280;59071;42.138;24.768;2023-02-22T01:17:48;99458.03;;;15.26;30.45
71151;BME280;59071;42.138;24.768;2023-02-22T01:20:13;99453.59;;;15.03;31.01
71151;BME280;59071;42.138;24.768;2023-02-22T01:22:39;99448.41;;;15.13;30.33
71151;BME280;59071;42.138;24.768;2023-02-22T01:25:05;99456.66;;;15.23;30.77
71151;BME280;59071;42.138;24.768;2023-02-22T01:27:31;99455.03;;;15.22;30.37
71151;BME280;59071;42.138;24.768;2023-02-22T01:29:57;99452.63;;;15.55;30.49
71151;BME280;59071;42.138;24.768;2023-02-22T01:32:22;99444.25;;;15.51;30.05
71151;BME280;59071;42.138;24.768;2023-02-22T01:34:47;99446.00;;;15.29;30.63
71151;BME280;59071;42.138;24.768;2023-02-22T01:37:12;99459.81;;;15.20;31.43
71151;BME280;59071;42.138;24.768;2023-02-22T01:39:38;99449.03;;;15.03;31.24
71151;BME280;59071;42.138;24.768;2023-02-22T01:42:03;99444.56;;;15.38;30.96
71151;BME280;59071;42.138;24.768;2023-02-22T01:44:32;99438.66;;;15.07;31.12
71151;BME280;59071;42.138;24.768;2023-02-22T01:46:59;99440.97;;;14.86;31.24
71151;BME280;59071;42.138;24.768;2023-02-22T01:49:28;99440.72;;;14.88;31.46
71151;BME280;59071;42.138;24.768;2023-02-22T01:51:55;99440.78;;;14.76;31.81
71151;BME280;59071;42.138;24.768;2023-02-22T01:54:24;99439.91;;;14.88;31.51
71151;BME280;59071;42.138;24.768;2023-02-22T01:56:52;99436.34;;;14.82;31.71
71151;BME280;59071;42.138;24.768;2023-02-22T01:59:18;99440.59;;;14.95;31.53
71151;BME280;59071;42.138;24.768;2023-02-22T02:01:44;99440.94;;;14.98;31.40
71151;BME280;59071;42.138;24.768;2023-02-22T02:04:18;99439.25;;;14.80;31.48
71151;BME280;59071;42.138;24.768;2023-02-22T02:06:44;99441.44;;;14.83;30.98
71151;BME280;59071;42.138;24.768;2023-02-22T02:09:13;99449.94;;;14.80;31.59
71151;BME280;59071;42.138;24.768;2023-02-22T02:11:40;99442.25;;;15.13;30.72
71151;BME280;59071;42.138;24.768;2023-02-22T02:14:07;99443.34;;;15.00;31.37
71151;BME280;59071;42.138;24.768;2023-02-22T02:19:00;99452.28;;;14.77;31.29
71151;BME280;59071;42.138;24.768;2023-02-22T02:34:01;99463.31;;;14.92;31.82
71151;BME280;59071;42.138;24.768;2023-02-22T02:36:36;99469.22;;;14.94;31.32
71151;BME280;59071;42.138;24.768;2023-02-22T02:39:11;99462.59;;;14.97;31.17
71151;BME280;59071;42.138;24.768;2023-02-22T02:41:42;99459.88;;;14.80;31.22
71151;BME280;59071;42.138;24.768;2023-02-22T02:44:14;99462.94;;;14.48;31.82
71151;BME280;59071;42.138;24.768;2023-02-22T02:46:45;99457.81;;;14.70;31.30
71151;BME280;59071;42.138;24.768;2023-02-22T02:49:14;99464.47;;;14.44;31.50
71151;BME280;59071;42.138;24.768;2023-02-22T02:51:41;99467.72;;;14.46;31.78
71151;BME280;59071;42.138;24.768;2023-02-22T02:54:08;99468.06;;;14.61;31.74
71151;BME280;59071;42.138;24.768;2023-02-22T02:56:34;99464.19;;;14.69;31.14
71151;BME280;59071;42.138;24.768;2023-02-22T02:58:59;99466.38;;;14.84;31.40
71151;BME280;59071;42.138;24.768;2023-02-22T03:14:17;99484.34;;;14.48;32.46
71151;BME280;59071;42.138;24.768;2023-02-22T03:16:51;99480.88;;;14.24;32.17
71151;BME280;59071;42.138;24.768;2023-02-22T03:24:29;99488.69;;;13.90;33.21
71151;BME280;59071;42.138;24.768;2023-02-22T03:29:20;99498.31;;;13.79;33.48
71151;BME280;59071;42.138;24.768;2023-02-22T03:31:48;99501.22;;;13.36;34.50
71151;BME280;59071;42.138;24.768;2023-02-22T03:34:19;99500.06;;;13.32;34.66
71151;BME280;59071;42.138;24.768;2023-02-22T03:36:56;99511.16;;;12.61;35.71
71151;BME280;59071;42.138;24.768;2023-02-22T03:39:23;99512.25;;;12.17;37.09
71151;BME280;59071;42.138;24.768;2023-02-22T03:41:55;99522.41;;;12.26;36.89
71151;BME280;59071;42.138;24.768;2023-02-22T03:44:23;99515.69;;;12.42;36.47
71151;BME280;59071;42.138;24.768;2023-02-22T03:46:49;99506.91;;;12.35;36.10
71151;BME280;59071;42.138;24.768;2023-02-22T03:49:19;99508.59;;;12.55;35.89
71151;BME280;59071;42.138;24.768;2023-02-22T03:51:48;99512.88;;;12.56;36.26
71151;BME280;59071;42.138;24.768;2023-02-22T03:54:13;99512.56;;;12.64;36.02
71151;BME280;59071;42.138;24.768;2023-02-22T03:59:38;99515.25;;;12.45;36.08
71151;BME280;59071;42.138;24.768;2023-02-22T04:02:03;99510.09;;;12.25;36.20
71151;BME280;59071;42.138;24.768;2023-02-22T04:04:29;99515.75;;;12.36;36.55
71151;BME280;59071;42.138;24.768;2023-02-22T04:06:54;99512.00;;;12.43;35.90
71151;BME280;59071;42.138;24.768;2023-02-22T04:09:19;99513.91;;;12.36;35.78
71151;BME280;59071;42.138;24.768;2023-02-22T04:11:45;99517.19;;;12.57;35.64
71151;BME280;59071;42.138;24.768;2023-02-22T04:14:10;99511.91;;;12.50;35.94
71151;BME280;59071;42.138;24.768;2023-02-22T04:16:35;99513.84;;;12.61;35.62
71151;BME280;59071;42.138;24.768;2023-02-22T04:19:01;99520.69;;;12.76;34.96
71151;BME280;59071;42.138;24.768;2023-02-22T04:21:26;99515.25;;;12.82;35.37
71151;BME280;59071;42.138;24.768;2023-02-22T04:23:51;99516.16;;;12.95;34.31
71151;BME280;59071;42.138;24.768;2023-02-22T04:26:17;99516.94;;;12.95;34.32
71151;BME280;59071;42.138;24.768;2023-02-22T04:28:42;99521.66;;;12.81;34.46
71151;BME280;59071;42.138;24.768;2023-02-22T04:31:07;99521.47;;;12.76;34.74
71151;BME280;59071;42.138;24.768;2023-02-22T04:33:33;99513.47;;;12.58;34.65
71151;BME280;59071;42.138;24.768;2023-02-22T04:35:58;99513.09;;;12.91;34.44
71151;BME280;59071;42.138;24.768;2023-02-22T04:38:24;99522.06;;;12.78;34.06
71151;BME280;59071;42.138;24.768;2023-02-22T04:40:50;99515.81;;;13.03;34.02
71151;BME280;59071;42.138;24.768;2023-02-22T04:43:15;99514.94;;;12.90;34.38
71151;BME280;59071;42.138;24.768;2023-02-22T04:45:40;99515.19;;;12.89;33.72
71151;BME280;59071;42.138;24.768;2023-02-22T04:48:06;99504.09;;;13.04;34.25
71151;BME280;59071;42.138;24.768;2023-02-22T04:50:31;99508.66;;;13.15;34.00
71151;BME280;59071;42.138;24.768;2023-02-22T04:52:56;99506.00;;;13.15;33.48
71151;BME280;59071;42.138;24.768;2023-02-22T04:55:21;99500.91;;;13.14;33.70
71151;BME280;59071;42.138;24.768;2023-02-22T04:57:47;99506.69;;;13.10;33.68
71151;BME280;59071;42.138;24.768;2023-02-22T05:00:16;99508.66;;;13.15;33.10
71151;BME280;59071;42.138;24.768;2023-02-22T05:02:42;99509.63;;;13.39;34.41
71151;BME280;59071;42.138;24.768;2023-02-22T05:05:07;99504.34;;;13.33;33.19
71151;BME280;59071;42.138;24.768;2023-02-22T05:07:32;99512.66;;;13.24;33.37
71151;BME280;59071;42.138;24.768;2023-02-22T05:09:57;99505.09;;;13.52;33.09
71151;BME280;59071;42.138;24.768;2023-02-22T05:12:23;99510.78;;;13.43;33.58
71151;BME280;59071;42.138;24.768;2023-02-22T05:14:50;99505.47;;;13.55;32.95
71151;BME280;59071;42.138;24.768;2023-02-22T05:17:16;99508.84;;;13.62;32.80
71151;BME280;59071;42.138;24.768;2023-02-22T05:19:42;99504.13;;;13.34;33.09
71151;BME280;59071;42.138;24.768;2023-02-22T05:22:07;99503.84;;;13.54;32.71
71151;BME280;59071;42.138;24.768;2023-02-22T05:24:32;99509.59;;;13.81;32.25
71151;BME280;59071;42.138;24.768;2023-02-22T05:26:59;99514.38;;;13.79;32.18
71151;BME280;59071;42.138;24.768;2023-02-22T05:29:26;99519.00;;;13.72;32.33
71151;BME280;59071;42.138;24.768;2023-02-22T05:31:51;99516.31;;;13.72;32.51
71151;BME280;59071;42.138;24.768;2023-02-22T05:34:16;99518.69;;;13.80;32.24
71151;BME280;59071;42.138;24.768;2023-02-22T05:36:42;99522.53;;;14.20;31.70
71151;BME280;59071;42.138;24.768;2023-02-22T05:39:07;99529.66;;;14.38;31.47
71151;BME280;59071;42.138;24.768;2023-02-22T05:41:33;99524.63;;;14.06;31.76
71151;BME280;59071;42.138;24.768;2023-02-22T05:43:58;99522.41;;;14.62;31.54
71151;BME280;59071;42.138;24.768;2023-02-22T05:46:23;99523.38;;;14.32;31.77
71151;BME280;59071;42.138;24.768;2023-02-22T05:48:49;99531.38;;;14.44;31.10
71151;BME280;59071;42.138;24.768;2023-02-22T05:51:14;99526.50;;;14.29;31.75
71151;BME280;59071;42.138;24.768;2023-02-22T05:53:39;99535.34;;;14.41;31.55
71151;BME280;59071;42.138;24.768;2023-02-22T05:56:06;99543.16;;;14.66;31.20
71151;BME280;59071;42.138;24.768;2023-02-22T05:58:32;99536.63;;;14.74;30.96
71151;BME280;59071;42.138;24.768;2023-02-22T06:00:57;99543.06;;;15.02;30.51
71151;BME280;59071;42.138;24.768;2023-02-22T06:03:22;99551.38;;;14.89;30.50
71151;BME280;59071;42.138;24.768;2023-02-22T06:05:47;99545.31;;;14.93;30.88
71151;BME280;59071;42.138;24.768;2023-02-22T06:08:13;99551.50;;;14.82;30.81
71151;BME280;59071;42.138;24.768;2023-02-22T06:10:38;99555.13;;;14.88;30.93
71151;BME280;59071;42.138;24.768;2023-02-22T06:13:04;99556.16;;;14.86;30.82
71151;BME280;59071;42.138;24.768;2023-02-22T06:15:29;99558.16;;;14.79;31.53
71151;BME280;59071;42.138;24.768;2023-02-22T06:17:55;99554.88;;;14.54;31.95
71151;BME280;59071;42.138;24.768;2023-02-22T06:20:21;99565.84;;;14.76;31.40
71151;BME280;59071;42.138;24.768;2023-02-22T06:22:47;99563.84;;;14.83;31.38
71151;BME280;59071;42.138;24.768;2023-02-22T06:25:13;99560.69;;;14.86;31.52
71151;BME280;59071;42.138;24.768;2023-02-22T06:27:40;99558.28;;;14.61;32.05
71151;BME280;59071;42.138;24.768;2023-02-22T06:30:05;99558.44;;;15.07;31.54
71151;BME280;59071;42.138;24.768;2023-02-22T06:32:31;99560.69;;;14.86;32.13
71151;BME280;59071;42.138;24.768;2023-02-22T06:34:56;99568.28;;;14.77;31.43
71151;BME280;59071;42.138;24.768;2023-02-22T06:37:21;99566.97;;;14.92;31.45
71151;BME280;59071;42.138;24.768;2023-02-22T06:39:46;99570.13;;;14.89;31.97
71151;BME280;59071;42.138;24.768;2023-02-22T06:42:13;99571.66;;;14.73;31.75
71151;BME280;59071;42.138;24.768;2023-02-22T06:44:38;99574.91;;;14.86;32.19
71151;BME280;59071;42.138;24.768;2023-02-22T06:47:03;99573.91;;;15.16;34.12
71151;BME280;59071;42.138;24.768;2023-02-22T06:49:29;99578.88;;;15.65;35.80
71151;BME280;59071;42.138;24.768;2023-02-22T06:51:54;99581.44;;;15.89;32.90
71151;BME280;59071;42.138;24.768;2023-02-22T06:54:20;99576.09;;;16.06;31.54
71151;BME280;59071;42.138;24.768;2023-02-22T06:56:46;99574.97;;;16.91;31.67
71151;BME280;59071;42.138;24.768;2023-02-22T06:59:11;99575.25;;;17.88;28.35
71151;BME280;59071;42.138;24.768;2023-02-22T07:01:39;99578.88;;;18.84;27.32
71151;BME280;59071;42.138;24.768;2023-02-22T07:04:04;99580.00;;;19.67;25.90
71151;BME280;59071;42.138;24.768;2023-02-22T07:06:29;99577.88;;;20.25;25.34
71151;BME280;59071;42.138;24.768;2023-02-22T07:08:55;99578.66;;;20.72;24.43
71151;BME280;59071;42.138;24.768;2023-02-22T07:11:20;99571.59;;;20.81;24.11
71151;BME280;59071;42.138;24.768;2023-02-22T07:13:45;99576.81;;;21.27;23.58
71151;BME280;59071;42.138;24.768;2023-02-22T07:16:11;99571.25;;;21.58;23.70
71151;BME280;59071;42.138;24.768;2023-02-22T07:18:36;99572.66;;;21.90;23.20
71151;BME280;59071;42.138;24.768;2023-02-22T07:21:01;99573.47;;;22.20;22.88
71151;BME280;59071;42.138;24.768;2023-02-22T07:23:26;99576.28;;;22.73;22.49
71151;BME280;59071;42.138;24.768;2023-02-22T07:25:52;99573.19;;;22.27;22.59
71151;BME280;59071;42.138;24.768;2023-02-22T07:28:17;99573.59;;;22.92;21.85
71151;BME280;59071;42.138;24.768;2023-02-22T07:30:42;99576.31;;;23.16;21.62
71151;BME280;59071;42.138;24.768;2023-02-22T07:33:09;99570.88;;;23.16;21.78
71151;BME280;59071;42.138;24.768;2023-02-22T07:35:36;99576.78;;;23.23;21.55
71151;BME280;59071;42.138;24.768;2023-02-22T07:38:02;99564.00;;;23.62;21.05
71151;BME280;59071;42.138;24.768;2023-02-22T07:40:27;99569.72;;;23.98;21.14
71151;BME280;59071;42.138;24.768;2023-02-22T07:42:53;99561.81;;;24.76;20.23
71151;BME280;59071;42.138;24.768;2023-02-22T07:45:20;99566.09;;;24.36;20.58
71151;BME280;59071;42.138;24.768;2023-02-22T07:47:45;99560.41;;;24.51;20.65
71151;BME280;59071;42.138;24.768;2023-02-22T07:50:12;99563.94;;;24.52;20.25
71151;BME280;59071;42.138;24.768;2023-02-22T07:52:38;99561.81;;;24.16;20.28
71151;BME280;59071;42.138;24.768;2023-02-22T07:55:03;99561.09;;;24.10;20.45
71151;BME280;59071;42.138;24.768;2023-02-22T07:57:31;99560.50;;;25.02;19.83
71151;BME280;59071;42.138;24.768;2023-02-22T07:59:56;99553.88;;;24.66;20.26
71151;BME280;59071;42.138;24.768;2023-02-22T08:02:21;99558.00;;;24.17;20.10
71151;BME280;59071;42.138;24.768;2023-02-22T08:04:47;99561.56;;;24.31;20.39
71151;BME280;59071;42.138;24.768;2023-02-22T08:07:12;99551.44;;;24.78;20.11
71151;BME280;59071;42.138;24.768;2023-02-22T08:09:37;99547.53;;;24.98;19.39
71151;BME280;59071;42.138;24.768;2023-02-22T08:12:02;99546.28;;;25.05;19.62
71151;BME280;59071;42.138;24.768;2023-02-22T08:14:28;99545.69;;;25.58;19.40
71151;BME280;59071;42.138;24.768;2023-02-22T08:16:53;99549.56;;;26.02;18.97
71151;BME280;59071;42.138;24.768;2023-02-22T08:19:18;99544.88;;;25.21;19.41
71151;BME280;59071;42.138;24.768;2023-02-22T08:21:44;99547.38;;;25.17;19.49
71151;BME280;59071;42.138;24.768;2023-02-22T08:24:09;99543.09;;;24.75;19.63
71151;BME280;59071;42.138;24.768;2023-02-22T08:26:34;99539.94;;;25.23;19.62
71151;BME280;59071;42.138;24.768;2023-02-22T08:28:59;99538.41;;;24.34;20.21
71151;BME280;59071;42.138;24.768;2023-02-22T08:31:25;99539.22;;;24.48;20.06
71151;BME280;59071;42.138;24.768;2023-02-22T08:33:50;99531.06;;;25.17;19.37
71151;BME280;59071;42.138;24.768;2023-02-22T08:36:15;99526.47;;;24.63;20.12
71151;BME280;59071;42.138;24.768;2023-02-22T08:38:42;99536.63;;;24.10;20.40
71151;BME280;59071;42.138;24.768;2023-02-22T08:41:07;99520.69;;;25.06;19.89
71151;BME280;59071;42.138;24.768;2023-02-22T08:43:33;99519.34;;;25.31;19.69
71151;BME280;59071;42.138;24.768;2023-02-22T08:45:58;99527.31;;;26.09;19.11
71151;BME280;59071;42.138;24.768;2023-02-22T08:48:23;99524.06;;;26.61;18.58
71151;BME280;59071;42.138;24.768;2023-02-22T08:50:49;99526.88;;;26.96;18.27
71151;BME280;59071;42.138;24.768;2023-02-22T08:53:14;99523.50;;;26.50;18.80
71151;BME280;59071;42.138;24.768;2023-02-22T08:55:40;99518.28;;;26.31;18.75
71151;BME280;59071;42.138;24.768;2023-02-22T08:58:06;99522.09;;;26.21;18.82
71151;BME280;59071;42.138;24.768;2023-02-22T09:00:33;99529.63;;;25.20;19.89
71151;BME280;59071;42.138;24.768;2023-02-22T09:03:00;99529.00;;;25.96;19.16
71151;BME280;59071;42.138;24.768;2023-02-22T09:05:25;99511.84;;;25.00;19.89
71151;BME280;59071;42.138;24.768;2023-02-22T09:07:51;99527.63;;;25.12;19.73
71151;BME280;59071;42.138;24.768;2023-02-22T09:10:18;99513.28;;;25.70;19.49
71151;BME280;59071;42.138;24.768;2023-02-22T09:12:44;99507.44;;;26.08;19.33
71151;BME280;59071;42.138;24.768;2023-02-22T09:15:09;99526.63;;;25.81;19.40
71151;BME280;59071;42.138;24.768;2023-02-22T09:17:35;99518.88;;;25.01;20.27
71151;BME280;59071;42.138;24.768;2023-02-22T09:20:04;99515.69;;;24.85;20.15
71151;BME280;59071;42.138;24.768;2023-02-22T09:22:30;99516.81;;;25.34;19.74
71151;BME280;59071;42.138;24.768;2023-02-22T09:24:55;99512.44;;;25.70;19.70
71151;BME280;59071;42.138;24.768;2023-02-22T09:27:20;99520.09;;;24.95;20.10
71151;BME280;59071;42.138;24.768;2023-02-22T09:29:49;99505.63;;;25.36;19.77
71151;BME280;59071;42.138;24.768;2023-02-22T09:32:14;99511.75;;;25.42;20.06
71151;BME280;59071;42.138;24.768;2023-02-22T09:34:42;99510.59;;;25.56;19.61
71151;BME280;59071;42.138;24.768;2023-02-22T09:37:10;99509.47;;;25.35;19.77
71151;BME280;59071;42.138;24.768;2023-02-22T09:39:35;99505.19;;;24.92;19.98
71151;BME280;59071;42.138;24.768;2023-02-22T09:47:00;99498.09;;;25.05;20.09
71151;BME280;59071;42.138;24.768;2023-02-22T09:51:54;99496.75;;;25.16;19.78
71151;BME280;59071;42.138;24.768;2023-02-22T09:54:30;99491.19;;;25.35;19.66
71151;BME280;59071;42.138;24.768;2023-02-22T09:57:01;99494.34;;;25.15;19.71
71151;BME280;59071;42.138;24.768;2023-02-22T09:59:33;99492.19;;;24.89;19.99
71151;BME280;59071;42.138;24.768;2023-02-22T10:02:11;99480.97;;;25.86;19.61
71151;BME280;59071;42.138;24.768;2023-02-22T10:09:48;99474.06;;;27.09;18.26
71151;BME280;59071;42.138;24.768;2023-02-22T10:12:26;99478.50;;;26.70;18.42
71151;BME280;59071;42.138;24.768;2023-02-22T10:27:33;99451.66;;;26.14;18.71
71151;BME280;59071;42.138;24.768;2023-02-22T10:30:24;99440.84;;;26.49;18.76
71151;BME280;59071;42.138;24.768;2023-02-22T10:35:23;99438.53;;;27.61;17.84
71151;BME280;59071;42.138;24.768;2023-02-22T10:37:51;99430.22;;;27.40;17.74
71151;BME280;59071;42.138;24.768;2023-02-22T10:40:19;99424.72;;;28.14;17.37
71151;BME280;59071;42.138;24.768;2023-02-22T10:42:47;99412.84;;;28.69;17.09
71151;BME280;59071;42.138;24.768;2023-02-22T10:45:33;99410.03;;;27.88;17.37
71151;BME280;59071;42.138;24.768;2023-02-22T10:48:05;99404.25;;;28.50;17.21
71151;BME280;59071;42.138;24.768;2023-02-22T10:50:36;99401.38;;;28.97;16.85
71151;BME280;59071;42.138;24.768;2023-02-22T10:53:03;99402.31;;;28.59;16.75
71151;BME280;59071;42.138;24.768;2023-02-22T10:55:29;99403.19;;;28.93;16.41
71151;BME280;59071;42.138;24.768;2023-02-22T10:57:58;99395.59;;;28.77;16.48
71151;BME280;59071;42.138;24.768;2023-02-22T11:00:32;99386.84;;;27.95;17.22
71151;BME280;59071;42.138;24.768;2023-02-22T11:03:02;99387.91;;;27.64;17.71
71151;BME280;59071;42.138;24.768;2023-02-22T11:05:30;99390.69;;;27.38;17.81
71151;BME280;59071;42.138;24.768;2023-02-22T11:10:39;99378.00;;;27.33;17.77
71151;BME280;59071;42.138;24.768;2023-02-22T11:15:42;99369.19;;;27.92;17.46
71151;BME280;59071;42.138;24.768;2023-02-22T11:18:31;99372.25;;;26.91;17.86
71151;BME280;59071;42.138;24.768;2023-02-22T11:21:04;99362.81;;;26.22;18.63
71151;BME280;59071;42.138;24.768;2023-02-22T11:23:30;99357.31;;;26.80;18.25
71151;BME280;59071;42.138;24.768;2023-02-22T11:26:00;99360.34;;;27.04;17.83
71151;BME280;59071;42.138;24.768;2023-02-22T11:28:27;99366.13;;;26.77;18.37
71151;BME280;59071;42.138;24.768;2023-02-22T11:31:42;99350.03;;;27.19;17.42
71151;BME280;59071;42.138;24.768;2023-02-22T11:33:50;99354.31;;;26.24;17.80
71151;BME280;59071;42.138;24.768;2023-02-22T11:36:28;99355.84;;;26.91;17.54
71151;BME280;59071;42.138;24.768;2023-02-22T11:38:54;99348.25;;;26.36;17.59
71151;BME280;59071;42.138;24.768;2023-02-22T11:41:29;99335.44;;;25.56;18.29
71151;BME280;59071;42.138;24.768;2023-02-22T11:44:10;99327.81;;;25.75;18.02
71151;BME280;59071;42.138;24.768;2023-02-22T11:46:36;99331.69;;;26.23;17.42
71151;BME280;59071;42.138;24.768;2023-02-22T11:49:08;99322.19;;;26.03;17.62
71151;BME280;59071;42.138;24.768;2023-02-22T11:51:41;99333.03;;;26.43;17.29
71151;BME280;59071;42.138;24.768;2023-02-22T11:56:49;99312.84;;;26.79;17.21
71151;BME280;59071;42.138;24.768;2023-02-22T11:59:29;99317.78;;;26.33;17.47
71151;BME280;59071;42.138;24.768;2023-02-22T12:04:48;99316.03;;;26.81;17.11
71151;BME280;59071;42.138;24.768;2023-02-22T12:17:25;99300.13;;;25.82;17.24
71151;BME280;59071;42.138;24.768;2023-02-22T12:20:03;99295.13;;;26.24;17.11
71151;BME280;59071;42.138;24.768;2023-02-22T12:22:35;99290.44;;;26.07;17.49
71151;BME280;59071;42.138;24.768;2023-02-22T12:27:30;99283.63;;;26.88;17.18
71151;BME280;59071;42.138;24.768;2023-02-22T12:29:58;99274.66;;;27.44;16.94
71151;BME280;59071;42.138;24.768;2023-02-22T12:32:28;99277.81;;;26.99;16.76
71151;BME280;59071;42.138;24.768;2023-02-22T12:34:58;99274.16;;;26.77;16.92
71151;BME280;59071;42.138;24.768;2023-02-22T12:37:33;99279.09;;;26.23;17.50
71151;BME280;59071;42.138;24.768;2023-02-22T12:40:12;99275.41;;;26.19;17.74
71151;BME280;59071;42.138;24.768;2023-02-22T12:45:13;99269.78;;;26.50;17.71
71151;BME280;59071;42.138;24.768;2023-02-22T12:48:03;99264.22;;;26.64;17.37
71151;BME280;59071;42.138;24.768;2023-02-22T12:50:31;99264.53;;;25.79;17.95
71151;BME280;59071;42.138;24.768;2023-02-22T12:53:00;99264.53;;;25.79;17.91
71151;BME280;59071;42.138;24.768;2023-02-22T12:55:32;99257.41;;;25.60;17.92
71151;BME280;59071;42.138;24.768;2023-02-22T12:58:05;99261.13;;;25.64;18.16
71151;BME280;59071;42.138;24.768;2023-02-22T13:00:34;99254.34;;;25.53;17.92
71151;BME280;59071;42.138;24.768;2023-02-22T13:05:46;99251.13;;;25.20;18.45
71151;BME280;59071;42.138;24.768;2023-02-22T13:13:33;99249.53;;;25.99;18.15
71151;BME280;59071;42.138;24.768;2023-02-22T13:18:31;99253.91;;;26.26;18.11
71151;BME280;59071;42.138;24.768;2023-02-22T13:21:14;99248.59;;;26.12;17.92
71151;BME280;59071;42.138;24.768;2023-02-22T13:28:59;99239.31;;;26.22;17.87
71151;BME280;59071;42.138;24.768;2023-02-22T13:31:40;99239.47;;;25.59;18.33
71151;BME280;59071;42.138;24.768;2023-02-22T13:47:33;99241.94;;;25.87;17.92
71151;BME280;59071;42.138;24.768;2023-02-22T13:52:30;99237.81;;;25.41;18.02
71151;BME280;59071;42.138;24.768;2023-02-22T13:55:02;99236.75;;;25.59;17.90
71151;BME280;59071;42.138;24.768;2023-02-22T13:57:41;99236.31;;;25.74;17.81
71151;BME280;59071;42.138;24.768;2023-02-22T14:08:03;99237.63;;;25.06;18.41
71151;BME280;59071;42.138;24.768;2023-02-22T14:10:43;99244.66;;;25.07;18.63
71151;BME280;59071;42.138;24.768;2023-02-22T14:13:09;99235.72;;;25.15;18.62
71151;BME280;59071;42.138;24.768;2023-02-22T14:15:35;99245.06;;;25.54;18.38
71151;BME280;59071;42.138;24.768;2023-02-22T14:18:04;99247.22;;;25.83;18.03
71151;BME280;59071;42.138;24.768;2023-02-22T14:20:31;99246.38;;;26.23;17.80
71151;BME280;59071;42.138;24.768;2023-02-22T14:25:42;99235.94;;;25.50;18.47
71151;BME280;59071;42.138;24.768;2023-02-22T14:31:02;99240.81;;;25.30;18.53
71151;BME280;59071;42.138;24.768;2023-02-22T14:36:12;99244.34;;;25.08;18.84
71151;BME280;59071;42.138;24.768;2023-02-22T14:38:37;99234.31;;;25.17;18.92
71151;BME280;59071;42.138;24.768;2023-02-22T14:41:03;99242.41;;;25.31;18.34
71151;BME280;59071;42.138;24.768;2023-02-22T14:43:29;99241.00;;;25.43;18.59
71151;BME280;59071;42.138;24.768;2023-02-22T14:45:55;99227.34;;;25.34;18.56
71151;BME280;59071;42.138;24.768;2023-02-22T14:48:23;99231.59;;;25.17;18.55
71151;BME280;59071;42.138;24.768;2023-02-22T14:50:58;99231.22;;;25.42;18.57
71151;BME280;59071;42.138;24.768;2023-02-22T14:56:00;99233.47;;;25.40;18.38
71151;BME280;59071;42.138;24.768;2023-02-22T14:58:35;99233.91;;;25.02;18.71
71151;BME280;59071;42.138;24.768;2023-02-22T15:03:48;99233.69;;;24.89;18.72
71151;BME280;59071;42.138;24.768;2023-02-22T15:06:17;99239.50;;;24.96;18.98
71151;BME280;59071;42.138;24.768;2023-02-22T15:08:43;99234.63;;;24.48;19.18
71151;BME280;59071;42.138;24.768;2023-02-22T15:11:45;99236.34;;;24.22;19.48
71151;BME280;59071;42.138;24.768;2023-02-22T15:17:02;99236.47;;;24.16;19.42
71151;BME280;59071;42.138;24.768;2023-02-22T15:19:29;99243.00;;;24.15;19.41
71151;BME280;59071;42.138;24.768;2023-02-22T15:21:56;99239.25;;;24.25;19.39